Time;durP1;ratioP1;P1;durP2;ratioP2;P2;SDS_P1;SDS_P2;PMS_P1;PMS_P2;Temp;Humidity;BMP_temperature;BMP_pressure;BME280_temperature;BME280_humidity;BME280_pressure;Samples;Min_cycle;Max_cycle;Signal;HPM_P1;HPM_P2
2021/06/09 00:00:45;;;;;;;36.30;29.30;;;;;;;;;;5035286;28;20092;-66
2021/06/09 00:03:12;;;;;;;43.30;30.73;;;;;;;;;;5035161;28;20049;-66
2021/06/09 00:05:39;;;;;;;37.60;30.35;;;;;;;;;;5016285;28;20547;-66
2021/06/09 00:08:06;;;;;;;40.05;30.75;;;;;;;;;;5015681;28;20049;-66
2021/06/09 00:10:32;;;;;;;40.22;31.98;;;;;;;;;;5028357;28;20077;-66
2021/06/09 00:12:59;;;;;;;45.22;33.17;;;;;;;;;;5050306;28;20077;-66
2021/06/09 00:15:26;;;;;;;47.17;32.75;;;;;;;;;;5035182;28;20516;-66
2021/06/09 00:17:53;;;;;;;46.90;32.22;;;;;;;;;;5035382;28;20123;-66
2021/06/09 00:20:25;;;;;;;42.30;31.88;;;;;;;;;;5035098;28;20045;-66
2021/06/09 00:22:51;;;;;;;39.90;30.85;;;;;;;;;;5033843;28;20080;-65
2021/06/09 00:25:18;;;;;;;43.00;31.85;;;;;;;;;;5034307;28;20088;-66
2021/06/09 00:27:47;;;;;;;42.42;31.08;;;;;;;;;;5035172;28;20080;-66
2021/06/09 00:30:34;;;;;;;46.08;33.28;;;;;;;;;;5022196;28;20096;-66
2021/06/09 00:33:01;;;;;;;39.53;29.70;;;;;;;;;;5014931;28;20056;-66
2021/06/09 00:35:28;;;;;;;43.90;33.08;;;;;;;;;;5019823;28;20085;-66
2021/06/09 00:37:55;;;;;;;42.15;31.70;;;;;;;;;;5022705;28;20492;-66
2021/06/09 00:40:22;;;;;;;44.05;32.85;;;;;;;;;;5015124;28;20072;-66
2021/06/09 00:43:11;;;;;;;48.50;34.13;;;;;;;;;;5014915;28;20068;-66
2021/06/09 00:45:41;;;;;;;42.50;32.38;;;;;;;;;;5015182;28;20077;-66
2021/06/09 00:48:07;;;;;;;46.00;33.90;;;;;;;;;;5014981;28;20046;-66
2021/06/09 00:50:35;;;;;;;40.30;31.50;;;;;;;;;;5029975;28;20050;-66
2021/06/09 00:55:47;;;;;;;44.22;32.17;;;;;;;;;;5014817;28;20148;-66
2021/06/09 00:58:14;;;;;;;43.83;33.25;;;;;;;;;;5029876;28;20560;-66
2021/06/09 01:00:41;;;;;;;42.08;32.40;;;;;;;;;;5013327;28;20077;-66
2021/06/09 01:03:08;;;;;;;41.72;31.63;;;;;;;;;;5014365;28;20128;-66
2021/06/09 01:05:35;;;;;;;44.80;33.22;;;;;;;;;;5014552;28;20104;-66
2021/06/09 01:08:03;;;;;;;45.05;32.47;;;;;;;;;;5014562;28;20489;-66
2021/06/09 01:10:30;;;;;;;47.30;32.05;;;;;;;;;;5014488;28;20046;-66
2021/06/09 01:12:58;;;;;;;41.22;31.27;;;;;;;;;;5014202;28;20096;-66
2021/06/09 01:15:25;;;;;;;41.78;30.88;;;;;;;;;;5014289;28;20072;-66
2021/06/09 01:17:52;;;;;;;42.03;31.95;;;;;;;;;;5014365;28;20053;-66
2021/06/09 01:20:20;;;;;;;41.33;32.72;;;;;;;;;;5014318;28;20487;-66
2021/06/09 01:22:47;;;;;;;42.97;31.80;;;;;;;;;;5014101;28;20100;-66
2021/06/09 01:25:14;;;;;;;39.92;30.58;;;;;;;;;;5014029;28;20050;-66
2021/06/09 01:27:40;;;;;;;46.42;31.98;;;;;;;;;;5014169;28;20523;-66
2021/06/09 01:30:09;;;;;;;46.13;32.83;;;;;;;;;;5014112;28;20096;-66
2021/06/09 01:32:36;;;;;;;44.28;32.40;;;;;;;;;;5014030;28;20092;-66
2021/06/09 01:35:04;;;;;;;42.45;32.42;;;;;;;;;;5014029;28;20136;-66
2021/06/09 01:37:31;;;;;;;43.58;32.50;;;;;;;;;;5013966;28;20456;-66
2021/06/09 01:39:59;;;;;;;47.35;35.20;;;;;;;;;;5013925;28;20092;-66
2021/06/09 01:42:27;;;;;;;49.58;34.50;;;;;;;;;;5013665;28;20085;-66
2021/06/09 01:44:54;;;;;;;49.47;35.15;;;;;;;;;;5013759;28;20564;-66
2021/06/09 01:47:21;;;;;;;53.60;35.70;;;;;;;;;;5012570;28;20053;-66
2021/06/09 01:49:47;;;;;;;56.97;37.17;;;;;;;;;;5013794;28;20497;-66
2021/06/09 01:52:14;;;;;;;53.05;36.33;;;;;;;;;;5013654;28;20681;-66
2021/06/09 01:54:41;;;;;;;54.72;36.95;;;;;;;;;;5013876;28;20050;-66
2021/06/09 01:57:08;;;;;;;48.92;35.15;;;;;;;;;;5013649;28;20145;-66
2021/06/09 01:59:34;;;;;;;51.70;35.78;;;;;;;;;;5013470;28;20501;-66
2021/06/09 02:02:01;;;;;;;47.08;33.50;;;;;;;;;;5013316;28;20073;-66
2021/06/09 02:04:28;;;;;;;49.75;33.70;;;;;;;;;;5013086;28;20046;-66
2021/06/09 02:06:55;;;;;;;44.38;32.63;;;;;;;;;;5012388;28;20078;-66
2021/06/09 02:09:23;;;;;;;43.38;32.22;;;;;;;;;;5013289;28;20108;-66
2021/06/09 02:11:50;;;;;;;46.75;32.88;;;;;;;;;;5012694;28;20080;-66
2021/06/09 02:14:17;;;;;;;42.35;31.50;;;;;;;;;;5013157;28;20053;-66
2021/06/09 02:16:46;;;;;;;43.40;31.77;;;;;;;;;;5028621;28;20085;-66
2021/06/09 02:19:13;;;;;;;39.55;30.63;;;;;;;;;;5013135;28;20052;-66
2021/06/09 02:21:42;;;;;;;44.60;31.92;;;;;;;;;;5013048;28;20046;-66
2021/06/09 02:24:10;;;;;;;39.40;31.05;;;;;;;;;;5013039;28;20124;-66
2021/06/09 02:26:38;;;;;;;42.28;31.63;;;;;;;;;;5011936;28;20108;-66
2021/06/09 02:29:06;;;;;;;40.33;29.05;;;;;;;;;;5013000;28;20085;-66
2021/06/09 02:31:33;;;;;;;37.72;28.67;;;;;;;;;;5012858;28;20050;-66
2021/06/09 02:33:59;;;;;;;40.63;30.77;;;;;;;;;;5012797;28;20046;-65
2021/06/09 02:36:26;;;;;;;48.20;32.95;;;;;;;;;;5011727;28;20505;-66
2021/06/09 02:38:53;;;;;;;42.50;32.38;;;;;;;;;;5011791;28;20077;-66
2021/06/09 02:41:19;;;;;;;40.97;31.42;;;;;;;;;;5012776;28;20085;-66
2021/06/09 02:43:48;;;;;;;39.55;31.02;;;;;;;;;;5012458;28;20085;-66
2021/06/09 02:46:54;;;;;;;46.65;32.38;;;;;;;;;;5012760;28;20049;-66
2021/06/09 02:49:24;;;;;;;43.30;31.80;;;;;;;;;;4994957;28;20062;-66
2021/06/09 02:52:25;;;;;;;42.50;31.08;;;;;;;;;;5012485;28;20521;-65
2021/06/09 02:54:58;;;;;;;44.30;31.73;;;;;;;;;;4999562;28;20081;-66
2021/06/09 02:57:37;;;;;;;41.17;30.10;;;;;;;;;;5011669;28;20081;-66
2021/06/09 03:00:11;;;;;;;50.55;32.53;;;;;;;;;;5011931;28;20164;-66
2021/06/09 03:02:50;;;;;;;44.10;32.50;;;;;;;;;;5012147;28;20084;-66
2021/06/09 03:05:35;;;;;;;45.67;31.58;;;;;;;;;;5012231;28;20058;-66
2021/06/09 03:08:04;;;;;;;41.72;30.48;;;;;;;;;;5012453;28;20073;-66
2021/06/09 03:10:34;;;;;;;44.15;32.72;;;;;;;;;;5012187;28;20073;-66
2021/06/09 03:16:44;;;;;;;46.03;32.47;;;;;;;;;;4980474;28;20483;-66
2021/06/09 03:19:12;;;;;;;;;;;;;;;;;;5011878;28;20058;-66
2021/06/09 03:21:48;;;;;;;47.00;31.08;;;;;;;;;;5010730;28;20066;-67
2021/06/09 03:24:27;;;;;;;50.92;34.50;;;;;;;;;;5011449;28;20082;-66
2021/06/09 03:26:59;;;;;;;47.08;32.50;;;;;;;;;;5027452;28;20077;-66
2021/06/09 03:29:44;;;;;;;54.50;35.13;;;;;;;;;;5027265;28;20050;-66
2021/06/09 03:32:31;;;;;;;45.58;33.20;;;;;;;;;;5011930;28;20319;-66
2021/06/09 03:35:16;;;;;;;45.97;33.85;;;;;;;;;;5011896;28;20050;-66
2021/06/09 03:37:46;;;;;;;53.53;33.80;;;;;;;;;;5012519;28;20513;-66
2021/06/09 03:40:18;;;;;;;51.67;34.13;;;;;;;;;;5010896;28;20050;-66
2021/06/09 03:42:48;;;;;;;46.55;32.95;;;;;;;;;;5026782;28;20049;-66
2021/06/09 03:45:15;;;;;;;48.83;33.38;;;;;;;;;;5010736;28;20049;-66
2021/06/09 03:47:42;;;;;;;47.63;33.83;;;;;;;;;;5010929;28;20528;-66
2021/06/09 03:50:09;;;;;;;44.60;32.03;;;;;;;;;;5010865;28;20081;-66
2021/06/09 03:52:36;;;;;;;49.67;34.65;;;;;;;;;;5010625;28;20472;-66
2021/06/09 03:55:05;;;;;;;49.75;35.15;;;;;;;;;;5010667;28;20429;-66
2021/06/09 03:57:31;;;;;;;52.95;36.00;;;;;;;;;;5010866;28;20146;-66
2021/06/09 03:59:58;;;;;;;54.72;35.65;;;;;;;;;;5011914;28;20497;-66
2021/06/09 04:02:25;;;;;;;59.45;37.60;;;;;;;;;;5010640;28;20074;-66
2021/06/09 04:04:52;;;;;;;50.75;36.47;;;;;;;;;;5026862;28;20659;-66
2021/06/09 04:07:19;;;;;;;51.80;35.10;;;;;;;;;;5011435;28;20054;-66
2021/06/09 04:09:46;;;;;;;55.08;35.83;;;;;;;;;;5024959;28;20078;-66
2021/06/09 04:12:13;;;;;;;54.50;35.72;;;;;;;;;;5010420;28;20042;-66
2021/06/09 04:14:42;;;;;;;53.55;37.05;;;;;;;;;;5010586;28;20142;-66
2021/06/09 04:17:09;;;;;;;51.40;35.83;;;;;;;;;;5011528;28;20074;-66
2021/06/09 04:19:37;;;;;;;57.10;36.45;;;;;;;;;;5011758;28;20053;-66
2021/06/09 04:22:04;;;;;;;49.80;33.90;;;;;;;;;;5010399;28;20081;-66
2021/06/09 04:24:38;;;;;;;50.60;34.50;;;;;;;;;;5011595;28;20082;-67
2021/06/09 04:27:06;;;;;;;52.88;34.45;;;;;;;;;;5011661;28;20089;-66
2021/06/09 04:29:33;;;;;;;40.58;31.40;;;;;;;;;;5036158;28;20054;-66
2021/06/09 04:32:00;;;;;;;42.28;32.08;;;;;;;;;;5029924;28;20104;-66
2021/06/09 04:34:40;;;;;;;40.95;29.95;;;;;;;;;;5031362;28;20053;-66
2021/06/09 04:37:06;;;;;;;43.10;30.02;;;;;;;;;;5019292;28;20057;-66
2021/06/09 04:39:36;;;;;;;40.05;30.75;;;;;;;;;;5034825;28;20088;-66
2021/06/09 04:42:04;;;;;;;38.30;29.33;;;;;;;;;;5033547;28;20049;-66
2021/06/09 04:44:32;;;;;;;35.97;29.85;;;;;;;;;;5033486;28;20119;-66
2021/06/09 04:47:00;;;;;;;43.03;30.63;;;;;;;;;;5033720;28;20084;-66
2021/06/09 04:49:34;;;;;;;39.78;29.73;;;;;;;;;;5034975;28;20077;-66
2021/06/09 04:52:01;;;;;;;40.47;29.15;;;;;;;;;;5034554;28;20111;-66
2021/06/09 04:54:27;;;;;;;39.58;27.95;;;;;;;;;;5034385;28;20061;-66
2021/06/09 04:56:54;;;;;;;35.85;28.02;;;;;;;;;;5034742;28;20114;-66
2021/06/09 04:59:21;;;;;;;40.28;30.13;;;;;;;;;;5034486;28;20049;-66
2021/06/09 05:01:48;;;;;;;38.05;27.98;;;;;;;;;;5034176;28;20085;-66
2021/06/09 05:04:14;;;;;;;37.50;29.48;;;;;;;;;;5034207;28;20497;-66
2021/06/09 05:06:41;;;;;;;35.70;28.33;;;;;;;;;;5033436;28;20072;-66
2021/06/09 05:09:08;;;;;;;37.42;28.33;;;;;;;;;;5034334;28;20496;-66
2021/06/09 05:11:48;;;;;;;39.28;29.40;;;;;;;;;;5016717;28;20053;-66
2021/06/09 05:14:32;;;;;;;36.03;28.95;;;;;;;;;;5033156;28;20076;-66
2021/06/09 05:16:59;;;;;;;38.42;30.40;;;;;;;;;;5033311;28;20123;-66
2021/06/09 05:19:27;;;;;;;36.80;29.63;;;;;;;;;;5029350;28;20396;-66
2021/06/09 05:22:21;;;;;;;35.40;28.33;;;;;;;;;;5013088;28;20096;-67
2021/06/09 05:24:48;;;;;;;34.28;28.13;;;;;;;;;;5012921;28;20578;-66
2021/06/09 05:27:16;;;;;;;37.35;29.60;;;;;;;;;;5029211;28;20085;-66
2021/06/09 05:29:43;;;;;;;37.47;28.42;;;;;;;;;;5012997;28;20085;-66
2021/06/09 05:32:09;;;;;;;32.85;26.65;;;;;;;;;;5014363;28;20046;-66
2021/06/09 05:34:37;;;;;;;32.88;27.08;;;;;;;;;;5012916;28;20092;-66
2021/06/09 05:37:03;;;;;;;35.38;27.23;;;;;;;;;;5029183;28;20085;-66
2021/06/09 05:39:30;;;;;;;37.05;28.83;;;;;;;;;;5012666;28;20058;-66
2021/06/09 05:41:57;;;;;;;33.00;26.77;;;;;;;;;;5028816;28;20085;-66
2021/06/09 05:44:25;;;;;;;34.55;27.05;;;;;;;;;;5013508;28;20077;-65
2021/06/09 05:46:51;;;;;;;34.55;27.90;;;;;;;;;;5031403;28;20571;-66
2021/06/09 05:49:22;;;;;;;31.88;26.35;;;;;;;;;;5033451;28;20060;-66
2021/06/09 05:51:49;;;;;;;36.72;28.60;;;;;;;;;;5033185;28;20053;-66
2021/06/09 05:54:17;;;;;;;30.13;25.38;;;;;;;;;;5031835;28;20500;-66
2021/06/09 05:56:43;;;;;;;30.83;25.40;;;;;;;;;;5033606;28;20122;-66
2021/06/09 05:59:12;;;;;;;32.92;26.33;;;;;;;;;;5032302;28;20133;-66
2021/06/09 06:01:40;;;;;;;29.50;24.88;;;;;;;;;;5032906;28;20100;-67
2021/06/09 06:04:08;;;;;;;31.60;25.38;;;;;;;;;;5032779;28;20041;-66
2021/06/09 06:06:34;;;;;;;28.02;24.90;;;;;;;;;;5033145;28;20049;-66
2021/06/09 06:09:02;;;;;;;27.77;24.77;;;;;;;;;;5032279;28;20160;-66
2021/06/09 06:11:28;;;;;;;29.45;24.70;;;;;;;;;;5032931;28;20137;-66
2021/06/09 06:13:55;;;;;;;30.08;24.63;;;;;;;;;;5031790;28;20551;-66
2021/06/09 06:16:21;;;;;;;27.88;23.55;;;;;;;;;;5048315;28;20049;-66
2021/06/09 06:18:49;;;;;;;26.60;22.42;;;;;;;;;;5032557;28;20084;-66
2021/06/09 06:21:17;;;;;;;26.92;24.02;;;;;;;;;;5047499;28;20103;-66
2021/06/09 06:23:44;;;;;;;31.00;24.33;;;;;;;;;;5031830;28;20425;-66
2021/06/09 06:26:16;;;;;;;26.45;23.63;;;;;;;;;;5032206;28;20049;-66
2021/06/09 06:28:43;;;;;;;29.20;24.15;;;;;;;;;;5032297;28;20049;-66
2021/06/09 06:31:14;;;;;;;27.98;23.00;;;;;;;;;;5047526;28;20088;-66
2021/06/09 06:33:43;;;;;;;33.28;25.95;;;;;;;;;;5029874;28;20053;-66
2021/06/09 06:36:10;;;;;;;27.25;23.92;;;;;;;;;;5031265;28;20149;-66
2021/06/09 06:38:37;;;;;;;26.77;23.25;;;;;;;;;;5022565;28;20054;-66
2021/06/09 06:41:05;;;;;;;26.65;21.67;;;;;;;;;;5011495;28;20100;-66
2021/06/09 06:43:32;;;;;;;24.25;21.55;;;;;;;;;;5012140;28;20120;-65
2021/06/09 06:45:58;;;;;;;25.85;23.15;;;;;;;;;;5012602;28;20074;-66
2021/06/09 06:48:25;;;;;;;28.92;24.65;;;;;;;;;;5011151;28;20077;-66
2021/06/09 06:50:52;;;;;;;26.92;23.75;;;;;;;;;;5020336;28;20120;-66
2021/06/09 06:53:19;;;;;;;29.50;26.17;;;;;;;;;;5030316;28;20107;-66
2021/06/09 06:55:46;;;;;;;27.58;24.58;;;;;;;;;;5030814;28;20092;-66
2021/06/09 06:58:13;;;;;;;28.42;25.38;;;;;;;;;;5011999;28;20050;-74
2021/06/09 07:00:40;;;;;;;30.45;25.05;;;;;;;;;;4994048;28;20057;-77
2021/06/09 07:03:08;;;;;;;29.38;25.65;;;;;;;;;;5012306;28;20116;-77
2021/06/09 07:05:35;;;;;;;29.55;26.35;;;;;;;;;;5010770;28;20135;-68
2021/06/09 07:08:03;;;;;;;30.58;25.02;;;;;;;;;;5010878;28;20065;-72
2021/06/09 07:10:30;;;;;;;26.70;23.13;;;;;;;;;;5011949;28;20049;-73
2021/06/09 07:12:59;;;;;;;28.88;25.85;;;;;;;;;;4994458;28;20587;-74
2021/06/09 07:15:27;;;;;;;29.33;24.88;;;;;;;;;;5011650;28;20058;-73
2021/06/09 07:17:58;;;;;;;26.08;23.27;;;;;;;;;;5012176;28;20050;-73
2021/06/09 07:20:27;;;;;;;26.92;23.63;;;;;;;;;;5012055;28;20082;-73
2021/06/09 07:22:55;;;;;;;31.05;23.33;;;;;;;;;;5010453;28;20096;-73
2021/06/09 07:25:23;;;;;;;27.20;24.05;;;;;;;;;;5010786;28;20489;-73
2021/06/09 07:27:54;;;;;;;29.73;25.60;;;;;;;;;;5019890;28;20100;-74
2021/06/09 07:30:26;;;;;;;30.83;26.43;;;;;;;;;;5009559;28;20390;-67
2021/06/09 07:32:53;;;;;;;26.60;23.73;;;;;;;;;;5010148;28;20089;-72
2021/06/09 07:35:20;;;;;;;32.10;27.23;;;;;;;;;;5008577;28;20115;-68
2021/06/09 07:37:49;;;;;;;28.88;25.67;;;;;;;;;;5007421;28;20286;-68
2021/06/09 07:40:24;;;;;;;30.38;25.05;;;;;;;;;;5007912;28;20072;-68
2021/06/09 07:43:00;;;;;;;27.67;24.70;;;;;;;;;;5008418;28;20054;-69
2021/06/09 07:45:26;;;;;;;;;;;;;;;;;;5008745;28;20092;-68
2021/06/09 07:47:54;;;;;;;27.90;24.83;;;;;;;;;;5024408;28;20396;-68
2021/06/09 07:50:27;;;;;;;30.08;26.83;;;;;;;;;;5023988;28;20086;-68
2021/06/09 07:52:55;;;;;;;29.52;25.33;;;;;;;;;;5008982;28;20354;-68
2021/06/09 07:55:26;;;;;;;27.48;24.42;;;;;;;;;;5008832;28;20053;-68
2021/06/09 07:57:52;;;;;;;29.30;25.23;;;;;;;;;;5007583;28;20054;-68
2021/06/09 08:00:19;;;;;;;25.75;23.10;;;;;;;;;;5008138;28;20077;-68
2021/06/09 08:02:46;;;;;;;28.38;24.65;;;;;;;;;;5009258;28;20049;-69
2021/06/09 08:05:13;;;;;;;29.65;26.38;;;;;;;;;;4991139;28;20421;-68
2021/06/09 08:07:40;;;;;;;29.45;26.23;;;;;;;;;;5009160;28;20374;-68
2021/06/09 08:10:09;;;;;;;30.05;26.85;;;;;;;;;;4994250;28;20050;-67
2021/06/09 08:12:36;;;;;;;27.70;24.70;;;;;;;;;;5069874;23;20073;-76
2021/06/09 08:15:05;;;;;;;30.02;26.77;;;;;;;;;;5037275;28;20045;-76
2021/06/09 08:17:32;;;;;;;30.48;26.70;;;;;;;;;;5029342;28;20091;-74
2021/06/09 08:19:59;;;;;;;32.67;26.13;;;;;;;;;;5040856;28;20685;-73
2021/06/09 08:22:25;;;;;;;28.27;25.00;;;;;;;;;;5015119;28;20517;-68
2021/06/09 08:24:52;;;;;;;32.20;25.52;;;;;;;;;;5013993;28;20084;-68
2021/06/09 08:27:18;;;;;;;27.20;24.33;;;;;;;;;;5013876;28;20078;-71
2021/06/09 08:29:45;;;;;;;28.40;24.05;;;;;;;;;;5011660;28;20497;-69
2021/06/09 08:32:11;;;;;;;25.67;22.95;;;;;;;;;;4990452;28;20053;-72
2021/06/09 08:34:38;;;;;;;25.38;22.77;;;;;;;;;;5028493;28;20323;-69
2021/06/09 08:37:05;;;;;;;24.30;21.80;;;;;;;;;;5013475;28;20095;-69
2021/06/09 08:39:32;;;;;;;25.40;22.70;;;;;;;;;;5017053;28;20056;-74
2021/06/09 08:42:01;;;;;;;25.58;22.92;;;;;;;;;;5013564;28;20057;-69
2021/06/09 08:44:28;;;;;;;24.98;22.17;;;;;;;;;;4996183;28;20497;-70
2021/06/09 08:46:58;;;;;;;25.20;22.60;;;;;;;;;;5012365;28;20058;-69
2021/06/09 08:49:25;;;;;;;24.73;22.23;;;;;;;;;;5012285;28;20561;-70
2021/06/09 08:51:53;;;;;;;25.83;22.95;;;;;;;;;;5013255;28;20081;-70
2021/06/09 08:54:19;;;;;;;28.90;25.25;;;;;;;;;;4991334;28;20392;-70
2021/06/09 08:56:50;;;;;;;25.60;22.30;;;;;;;;;;5010953;28;20104;-70
2021/06/09 08:59:16;;;;;;;26.88;24.02;;;;;;;;;;5004286;28;20543;-70
2021/06/09 09:01:43;;;;;;;22.67;20.45;;;;;;;;;;5004383;28;20041;-69
2021/06/09 09:04:10;;;;;;;25.23;22.63;;;;;;;;;;5006609;28;20046;-71
2021/06/09 09:06:37;;;;;;;24.70;22.08;;;;;;;;;;4988538;28;20527;-70
2021/06/09 09:09:04;;;;;;;26.27;23.48;;;;;;;;;;5012209;28;20054;-70
2021/06/09 09:11:30;;;;;;;26.58;23.77;;;;;;;;;;5011948;28;20103;-70
2021/06/09 09:13:57;;;;;;;28.70;25.23;;;;;;;;;;4990012;28;20081;-70
2021/06/09 09:16:25;;;;;;;24.95;22.45;;;;;;;;;;5013234;28;20108;-72
2021/06/09 09:19:02;;;;;;;26.27;23.48;;;;;;;;;;4990017;28;20058;-70
2021/06/09 09:21:36;;;;;;;29.58;26.15;;;;;;;;;;5008562;28;20089;-71
2021/06/09 09:24:06;;;;;;;27.98;25.25;;;;;;;;;;5003267;28;20568;-70
2021/06/09 09:26:34;;;;;;;29.33;26.30;;;;;;;;;;4987851;28;20577;-70
2021/06/09 09:29:20;;;;;;;26.70;23.90;;;;;;;;;;5028605;28;20498;-70
2021/06/09 09:31:49;;;;;;;26.50;23.70;;;;;;;;;;5001915;28;20091;-70
2021/06/09 09:34:52;;;;;;;25.80;23.30;;;;;;;;;;4995764;28;20159;-71
2021/06/09 09:37:30;;;;;;;25.50;22.90;;;;;;;;;;4946773;28;20070;-69
2021/06/09 09:40:15;;;;;;;25.17;22.73;;;;;;;;;;5000349;28;20086;-71
2021/06/09 09:42:49;;;;;;;23.65;21.25;;;;;;;;;;5005781;28;20045;-70
2021/06/09 09:45:19;;;;;;;22.52;20.30;;;;;;;;;;5012096;28;20049;-74
2021/06/09 09:48:00;;;;;;;21.00;18.38;;;;;;;;;;5009082;28;20209;-75
2021/06/09 09:50:54;;;;;;;23.97;20.07;;;;;;;;;;5002358;28;20054;-69
2021/06/09 09:53:47;;;;;;;22.80;20.27;;;;;;;;;;5009793;28;20101;-76
2021/06/09 09:56:17;;;;;;;23.30;21.00;;;;;;;;;;5007273;28;20077;-71
2021/06/09 09:59:00;;;;;;;22.50;20.13;;;;;;;;;;5026553;28;20397;-74
2021/06/09 10:01:29;;;;;;;22.50;20.27;;;;;;;;;;4990511;28;20080;-69
2021/06/09 10:03:57;;;;;;;21.17;18.92;;;;;;;;;;5011743;28;20050;-75
2021/06/09 10:06:34;;;;;;;17.38;15.68;;;;;;;;;;4990247;28;20582;-75
2021/06/09 10:09:13;;;;;;;18.08;16.35;;;;;;;;;;4992988;28;20046;-74
2021/06/09 10:11:44;;;;;;;17.40;15.68;;;;;;;;;;4994866;28;20057;-74
2021/06/09 10:14:27;;;;;;;16.98;15.27;;;;;;;;;;5012380;28;20046;-80
2021/06/09 10:16:57;;;;;;;18.10;16.42;;;;;;;;;;5005955;28;20057;-78
2021/06/09 10:19:46;;;;;;;16.73;15.13;;;;;;;;;;5012570;28;20088;-76
2021/06/09 10:22:19;;;;;;;19.23;17.38;;;;;;;;;;4981178;28;20081;-76
2021/06/09 10:24:52;;;;;;;15.38;14.02;;;;;;;;;;4973752;28;20116;-75
2021/06/09 10:27:47;;;;;;;17.75;16.15;;;;;;;;;;5017228;28;20089;-78
2021/06/09 10:30:20;;;;;;;17.27;14.88;;;;;;;;;;5010121;28;20058;-68
2021/06/09 10:32:57;;;;;;;16.23;14.73;;;;;;;;;;5011286;28;20046;-68
2021/06/09 10:35:31;;;;;;;16.10;14.60;;;;;;;;;;5011056;28;20728;-68
2021/06/09 10:37:58;;;;;;;15.90;13.90;;;;;;;;;;5026902;28;20185;-68
2021/06/09 10:40:27;;;;;;;16.60;14.60;;;;;;;;;;5011645;28;20045;-69
2021/06/09 10:43:03;;;;;;;15.43;13.75;;;;;;;;;;4988536;28;20054;-70
2021/06/09 10:45:30;;;;;;;15.52;13.70;;;;;;;;;;5003474;28;20141;-72
2021/06/09 10:47:58;;;;;;;16.27;14.65;;;;;;;;;;5006447;28;20045;-70
2021/06/09 10:50:25;;;;;;;14.68;13.20;;;;;;;;;;4998701;28;20046;-69
2021/06/09 10:52:52;;;;;;;16.77;15.18;;;;;;;;;;5010824;28;20429;-73
2021/06/09 10:55:19;;;;;;;15.45;13.93;;;;;;;;;;5009825;28;20046;-69
2021/06/09 10:57:48;;;;;;;15.10;13.50;;;;;;;;;;5011598;28;20120;-70
2021/06/09 11:00:16;;;;;;;14.57;13.18;;;;;;;;;;4972753;28;20148;-70
2021/06/09 11:02:42;;;;;;;15.63;14.13;;;;;;;;;;5006734;28;20092;-70
2021/06/09 11:05:11;;;;;;;16.83;15.13;;;;;;;;;;4993001;28;20080;-70
2021/06/09 11:07:43;;;;;;;13.38;12.13;;;;;;;;;;4993789;28;20081;-70
2021/06/09 11:10:10;;;;;;;12.90;11.70;;;;;;;;;;5006017;28;20403;-70
2021/06/09 11:12:38;;;;;;;12.93;11.73;;;;;;;;;;5010634;28;20049;-70
2021/06/09 11:15:13;;;;;;;12.00;10.77;;;;;;;;;;5006803;28;20087;-71
2021/06/09 11:17:43;;;;;;;12.35;11.20;;;;;;;;;;5026244;28;20077;-70
2021/06/09 11:20:11;;;;;;;13.77;12.48;;;;;;;;;;5011060;28;20099;-71
2021/06/09 11:22:44;;;;;;;13.75;12.35;;;;;;;;;;5009692;28;20073;-70
2021/06/09 11:25:12;;;;;;;12.65;11.32;;;;;;;;;;5009445;28;20046;-70
2021/06/09 11:28:10;;;;;;;13.88;12.57;;;;;;;;;;4999475;28;20432;-70
2021/06/09 11:30:52;;;;;;;12.02;10.88;;;;;;;;;;4997972;28;20081;-67
2021/06/09 11:33:30;;;;;;;12.15;11.05;;;;;;;;;;5009287;28;20049;-67
2021/06/09 11:35:58;;;;;;;11.07;9.95;;;;;;;;;;4993867;28;20464;-67
2021/06/09 11:38:32;;;;;;;9.68;8.77;;;;;;;;;;5010944;28;20050;-69
2021/06/09 11:41:13;;;;;;;9.15;8.25;;;;;;;;;;4988346;28;20058;-70
2021/06/09 11:43:47;;;;;;;9.88;8.88;;;;;;;;;;5008308;28;20042;-71
2021/06/09 11:46:17;;;;;;;10.93;9.80;;;;;;;;;;5009418;28;20092;-67
2021/06/09 11:49:01;;;;;;;10.13;9.05;;;;;;;;;;5011318;28;20053;-67
2021/06/09 11:52:07;;;;;;;10.65;9.63;;;;;;;;;;4982910;28;20061;-67
2021/06/09 11:54:36;;;;;;;12.20;11.10;;;;;;;;;;5004733;28;20054;-70
2021/06/09 11:57:06;;;;;;;11.85;10.85;;;;;;;;;;4994188;28;20081;-68
2021/06/09 11:59:38;;;;;;;12.27;11.10;;;;;;;;;;5010084;28;20129;-70
2021/06/09 12:02:15;;;;;;;9.40;8.50;;;;;;;;;;5010773;28;20053;-68
2021/06/09 12:04:50;;;;;;;10.73;9.73;;;;;;;;;;5036983;28;20054;-67
2021/06/09 12:07:24;;;;;;;10.82;9.55;;;;;;;;;;4994158;28;20077;-67
2021/06/09 12:09:56;;;;;;;10.55;9.45;;;;;;;;;;5011451;28;20108;-68
2021/06/09 12:12:25;;;;;;;10.40;9.40;;;;;;;;;;5000395;28;20496;-67
2021/06/09 12:15:00;;;;;;;10.27;9.35;;;;;;;;;;5000930;28;20921;-68
2021/06/09 12:17:32;;;;;;;10.65;9.57;;;;;;;;;;5012427;28;20115;-67
2021/06/09 12:20:07;;;;;;;11.87;10.67;;;;;;;;;;5017258;28;20420;-68
2021/06/09 12:22:39;;;;;;;12.95;11.75;;;;;;;;;;5010685;28;20053;-68
2021/06/09 12:25:07;;;;;;;12.65;11.35;;;;;;;;;;4993861;28;20077;-68
2021/06/09 12:27:35;;;;;;;12.50;11.25;;;;;;;;;;5001417;28;20053;-68
2021/06/09 12:30:11;;;;;;;12.40;11.20;;;;;;;;;;5006421;28;20061;-68
2021/06/09 12:32:40;;;;;;;13.63;12.27;;;;;;;;;;5000998;28;20115;-68
2021/06/09 12:35:12;;;;;;;11.32;10.27;;;;;;;;;;5009625;28;20077;-69
2021/06/09 12:37:53;;;;;;;11.00;10.07;;;;;;;;;;5010840;28;20077;-68
2021/06/09 12:40:25;;;;;;;11.50;10.23;;;;;;;;;;4990886;28;20050;-69
2021/06/09 12:43:03;;;;;;;10.45;9.50;;;;;;;;;;5009657;28;20591;-69
2021/06/09 12:45:32;;;;;;;11.60;10.40;;;;;;;;;;4998865;28;20082;-69
2021/06/09 12:48:07;;;;;;;10.15;9.25;;;;;;;;;;5009363;28;20062;-68
2021/06/09 12:50:44;;;;;;;9.80;8.90;;;;;;;;;;5006205;28;20077;-69
2021/06/09 12:53:18;;;;;;;8.68;7.88;;;;;;;;;;4997426;28;20053;-67
2021/06/09 12:55:56;;;;;;;10.13;7.75;;;;;;;;;;4984699;28;20092;-67
2021/06/09 12:58:27;;;;;;;5.63;4.50;;;;;;;;;;5020686;28;20069;-67
2021/06/09 13:00:55;;;;;;;5.55;5.05;;;;;;;;;;5017617;28;20128;-68
2021/06/09 13:03:35;;;;;;;4.95;4.22;;;;;;;;;;5018984;28;20070;-67
2021/06/09 13:06:06;;;;;;;4.07;3.53;;;;;;;;;;5025554;28;20465;-68
2021/06/09 13:08:42;;;;;;;4.10;2.80;;;;;;;;;;5017395;28;20515;-67
2021/06/09 13:11:10;;;;;;;3.58;3.28;;;;;;;;;;5036783;28;20042;-68
2021/06/09 13:13:46;;;;;;;3.97;3.60;;;;;;;;;;5033911;28;20050;-68
2021/06/09 13:16:37;;;;;;;2.70;2.50;;;;;;;;;;5035077;28;20034;-67
2021/06/09 13:19:06;;;;;;;5.85;2.92;;;;;;;;;;5017014;28;20089;-68
2021/06/09 13:21:37;;;;;;;3.15;2.85;;;;;;;;;;5048543;28;20054;-69
2021/06/09 13:24:13;;;;;;;2.83;2.45;;;;;;;;;;5028185;28;20041;-68
2021/06/09 13:26:41;;;;;;;2.38;2.17;;;;;;;;;;5034438;28;20046;-68
2021/06/09 13:29:56;;;;;;;3.13;1.90;;;;;;;;;;5030018;28;20045;-68
2021/06/09 13:32:27;;;;;;;2.10;1.90;;;;;;;;;;5027954;28;20069;-67
2021/06/09 13:34:54;;;;;;;1.88;1.77;;;;;;;;;;5036219;28;20030;-67
2021/06/09 13:37:32;;;;;;;3.42;3.03;;;;;;;;;;5036851;28;20061;-67
2021/06/09 13:40:02;;;;;;;4.50;3.15;;;;;;;;;;5035154;28;20038;-68
2021/06/09 13:42:32;;;;;;;6.93;4.15;;;;;;;;;;5035271;28;20046;-68
2021/06/09 13:45:00;;;;;;;7.35;3.92;;;;;;;;;;5050362;28;20050;-68
2021/06/09 13:47:31;;;;;;;4.47;3.85;;;;;;;;;;5027742;28;20054;-68
2021/06/09 13:50:07;;;;;;;4.72;4.32;;;;;;;;;;5043804;28;20061;-68
2021/06/09 13:52:37;;;;;;;5.57;4.40;;;;;;;;;;5036101;28;20051;-69
2021/06/09 13:55:09;;;;;;;8.77;5.10;;;;;;;;;;5030177;28;20049;-68
2021/06/09 13:57:46;;;;;;;5.85;5.35;;;;;;;;;;5035208;28;20061;-69
2021/06/09 14:00:15;;;;;;;7.63;6.10;;;;;;;;;;5029954;28;20046;-68
2021/06/09 14:02:45;;;;;;;7.45;6.55;;;;;;;;;;5026674;28;20076;-68
2021/06/09 14:05:19;;;;;;;6.93;6.32;;;;;;;;;;5051162;28;20061;-68
2021/06/09 14:07:47;;;;;;;8.55;6.85;;;;;;;;;;5033606;28;20046;-68
2021/06/09 14:10:16;;;;;;;9.98;6.63;;;;;;;;;;5035258;28;20056;-68
2021/06/09 14:12:48;;;;;;;8.07;6.57;;;;;;;;;;5057730;22;20034;-64
2021/06/09 14:15:22;;;;;;;7.28;6.57;;;;;;;;;;4986925;28;20863;-64
2021/06/09 14:17:49;;;;;;;6.47;5.88;;;;;;;;;;4992318;28;20509;-64
2021/06/09 14:20:22;;;;;;;6.60;5.90;;;;;;;;;;4992465;28;20050;-63
2021/06/09 14:22:52;;;;;;;9.43;6.70;;;;;;;;;;4992832;28;20085;-64
2021/06/09 14:25:21;;;;;;;6.75;5.82;;;;;;;;;;4991578;28;20453;-64
2021/06/09 14:27:56;;;;;;;6.13;5.43;;;;;;;;;;4988435;28;20557;-64
2021/06/09 14:30:44;;;;;;;5.30;4.90;;;;;;;;;;4992054;28;20089;-64
2021/06/09 14:33:27;;;;;;;6.55;5.95;;;;;;;;;;4990836;28;20042;-64
2021/06/09 14:36:06;;;;;;;6.28;5.65;;;;;;;;;;4989733;28;20086;-64
2021/06/09 14:38:38;;;;;;;6.63;5.57;;;;;;;;;;4986816;28;20509;-64
2021/06/09 14:41:36;;;;;;;5.50;5.00;;;;;;;;;;4987753;28;20082;-65
2021/06/09 14:44:12;;;;;;;5.75;4.78;;;;;;;;;;4988740;28;20515;-64
2021/06/09 14:46:45;;;;;;;6.68;5.13;;;;;;;;;;4986201;28;20109;-64
2021/06/09 14:49:31;;;;;;;5.07;4.60;;;;;;;;;;4989470;28;20057;-64